createdAt,value
2023-07-30T00:00:52.483Z,3.60
2023-07-30T00:03:19.424Z,3.63
2023-07-30T00:05:56.787Z,3.75
2023-07-30T00:08:24.655Z,3.63
2023-07-30T00:10:51.577Z,4.10
2023-07-30T00:13:18.778Z,4.30
2023-07-30T00:15:48.720Z,3.58
2023-07-30T00:18:16.261Z,4.15
2023-07-30T00:20:43.508Z,3.58
2023-07-30T00:23:10.299Z,3.58
2023-07-30T00:25:37.246Z,3.58
2023-07-30T00:28:04.277Z,3.58
2023-07-30T00:30:31.193Z,3.60
2023-07-30T00:32:58.059Z,3.85
2023-07-30T00:35:25.044Z,3.80
2023-07-30T00:37:51.848Z,3.67
2023-07-30T00:40:19.519Z,3.80
2023-07-30T00:42:46.851Z,3.40
2023-07-30T00:45:13.717Z,3.38
2023-07-30T00:47:41.366Z,3.40
2023-07-30T00:50:09.465Z,3.60
2023-07-30T00:52:36.481Z,3.65
2023-07-30T00:55:04.296Z,3.45
2023-07-30T00:57:33.309Z,3.70
2023-07-30T01:00:00.212Z,3.35
2023-07-30T01:02:28.670Z,3.70
2023-07-30T01:04:55.530Z,3.88
2023-07-30T01:07:22.330Z,3.80
2023-07-30T01:09:49.255Z,3.58
2023-07-30T01:12:16.133Z,3.40
2023-07-30T01:14:43.918Z,3.58
2023-07-30T01:17:11.828Z,4.10
2023-07-30T01:19:38.814Z,3.60
2023-07-30T01:22:05.692Z,3.58
2023-07-30T01:24:32.520Z,3.67
2023-07-30T01:27:12.202Z,3.85
2023-07-30T01:29:49.817Z,3.28
2023-07-30T01:32:18.136Z,3.50
2023-07-30T01:34:47.487Z,3.92
2023-07-30T01:37:15.766Z,3.67
2023-07-30T01:39:45.258Z,3.42
2023-07-30T01:42:14.924Z,3.80
2023-07-30T01:44:41.915Z,3.30
2023-07-30T01:47:08.886Z,3.65
2023-07-30T01:49:35.712Z,3.70
2023-07-30T01:52:02.580Z,3.70
2023-07-30T01:54:29.440Z,3.72
2023-07-30T01:56:56.258Z,3.65
2023-07-30T01:59:23.165Z,3.78
2023-07-30T02:01:50.065Z,4.00
2023-07-30T02:04:18.559Z,4.00
2023-07-30T02:06:45.660Z,3.35
2023-07-30T02:09:12.522Z,3.97
2023-07-30T02:11:39.534Z,3.30
2023-07-30T02:14:06.630Z,3.03
2023-07-30T02:16:33.576Z,3.10
2023-07-30T02:19:00.411Z,3.47
2023-07-30T02:21:27.316Z,3.00
2023-07-30T02:23:54.144Z,3.55
2023-07-30T02:26:20.947Z,2.80
2023-07-30T02:28:47.802Z,2.97
2023-07-30T02:31:14.911Z,2.97
2023-07-30T02:33:41.806Z,2.45
2023-07-30T02:36:08.768Z,2.70
2023-07-30T02:38:35.602Z,3.03
2023-07-30T02:41:02.386Z,3.03
2023-07-30T02:43:29.175Z,2.90
2023-07-30T02:45:56.044Z,2.67
2023-07-30T02:48:22.858Z,2.97
2023-07-30T02:50:49.659Z,3.08
2023-07-30T02:53:16.484Z,3.00
2023-07-30T02:55:43.267Z,3.55
2023-07-30T02:58:10.063Z,3.35
2023-07-30T03:00:38.019Z,3.25
2023-07-30T03:03:05.671Z,4.10
2023-07-30T03:05:32.789Z,3.28
2023-07-30T03:07:59.604Z,3.70
2023-07-30T03:10:26.505Z,4.00
2023-07-30T03:12:53.310Z,3.53
2023-07-30T03:15:20.182Z,3.58
2023-07-30T03:17:47.036Z,3.35
2023-07-30T03:20:13.898Z,3.22
2023-07-30T03:22:40.935Z,2.95
2023-07-30T03:25:08.170Z,2.85
2023-07-30T03:27:35.018Z,3.55
2023-07-30T03:30:01.890Z,3.30
2023-07-30T03:32:28.755Z,3.45
2023-07-30T03:34:55.629Z,2.65
2023-07-30T03:37:22.523Z,2.97
2023-07-30T03:39:49.369Z,3.13
2023-07-30T03:42:16.170Z,2.90
2023-07-30T03:44:43.021Z,3.25
2023-07-30T03:47:09.884Z,2.40
2023-07-30T03:49:36.710Z,3.10
2023-07-30T03:52:03.816Z,3.00
2023-07-30T03:54:30.618Z,3.20
2023-07-30T03:56:57.394Z,3.20
2023-07-30T03:59:24.328Z,3.08
2023-07-30T04:01:51.219Z,3.00
2023-07-30T04:04:18.047Z,3.00
2023-07-30T04:06:44.905Z,3.70
2023-07-30T04:09:12.058Z,3.40
2023-07-30T04:11:39.074Z,3.47
2023-07-30T04:14:06.220Z,3.20
2023-07-30T04:16:33.152Z,3.03
2023-07-30T04:19:00.023Z,3.08
2023-07-30T04:21:26.895Z,3.20
2023-07-30T04:23:53.671Z,3.58
2023-07-30T04:26:20.462Z,3.53
2023-07-30T04:28:47.370Z,3.72
2023-07-30T04:31:14.178Z,3.10
2023-07-30T04:33:41.051Z,3.65
2023-07-30T04:36:08.939Z,3.60
2023-07-30T04:38:35.791Z,4.10
2023-07-30T04:41:02.681Z,4.00
2023-07-30T04:43:30.165Z,3.70
2023-07-30T04:45:57.149Z,4.35
2023-07-30T04:48:24.037Z,4.45
2023-07-30T04:50:50.906Z,4.25
2023-07-30T04:53:21.743Z,4.10
2023-07-30T04:55:48.567Z,4.28
2023-07-30T04:58:15.417Z,4.50
2023-07-30T05:00:42.270Z,3.80
2023-07-30T05:03:09.258Z,3.60
2023-07-30T05:05:36.237Z,3.67
2023-07-30T05:08:03.093Z,3.90
2023-07-30T05:10:29.867Z,3.70
2023-07-30T05:12:56.687Z,3.25
2023-07-30T05:15:23.492Z,3.72
2023-07-30T05:17:50.309Z,3.67
2023-07-30T05:20:17.482Z,3.20
2023-07-30T05:22:44.271Z,2.95
2023-07-30T05:25:11.075Z,2.88
2023-07-30T05:27:37.965Z,3.20
2023-07-30T05:30:05.524Z,2.88
2023-07-30T05:32:32.389Z,3.42
2023-07-30T05:34:59.555Z,3.13
2023-07-30T05:37:26.388Z,3.35
2023-07-30T05:39:53.229Z,3.33
2023-07-30T05:42:20.097Z,3.50
2023-07-30T05:44:47.021Z,3.15
2023-07-30T05:47:13.829Z,3.20
2023-07-30T05:49:40.704Z,2.88
2023-07-30T05:52:07.633Z,2.80
2023-07-30T05:54:34.422Z,2.88
2023-07-30T05:57:01.253Z,2.85
2023-07-30T05:59:28.208Z,2.53
2023-07-30T06:01:59.078Z,2.33
2023-07-30T06:04:26.004Z,2.40
2023-07-30T06:06:52.802Z,2.65
2023-07-30T06:09:19.654Z,2.92
2023-07-30T06:11:46.472Z,2.70
2023-07-30T06:14:13.307Z,2.65
2023-07-30T06:16:40.240Z,2.15
2023-07-30T06:19:07.151Z,2.30
2023-07-30T06:21:34.053Z,2.28
2023-07-30T06:24:00.842Z,2.40
2023-07-30T06:26:27.821Z,2.30
2023-07-30T06:28:54.659Z,1.75
2023-07-30T06:31:21.566Z,1.70
2023-07-30T06:33:48.419Z,1.50
2023-07-30T06:36:15.250Z,1.20
2023-07-30T06:38:42.144Z,1.55
2023-07-30T06:41:09.086Z,1.70
2023-07-30T06:43:35.968Z,1.25
2023-07-30T06:46:02.857Z,1.50
2023-07-30T06:48:29.784Z,1.60
2023-07-30T06:50:56.623Z,1.60
2023-07-30T06:53:23.545Z,1.40
2023-07-30T06:55:50.455Z,1.80
2023-07-30T06:58:17.260Z,1.50
2023-07-30T07:00:44.228Z,1.55
2023-07-30T07:03:11.321Z,1.83
2023-07-30T07:05:38.344Z,1.35
2023-07-30T07:08:05.396Z,1.85
2023-07-30T07:10:32.564Z,1.40
2023-07-30T07:12:59.343Z,1.42
2023-07-30T07:15:26.172Z,1.88
2023-07-30T07:17:53.054Z,1.33
2023-07-30T07:20:19.941Z,1.58
2023-07-30T07:22:46.816Z,1.40
2023-07-30T07:25:13.668Z,1.23
2023-07-30T07:27:40.432Z,1.48
2023-07-30T07:30:08.259Z,1.95
2023-07-30T07:32:39.311Z,1.67
2023-07-30T07:35:07.002Z,1.70
2023-07-30T07:37:34.267Z,1.50
2023-07-30T07:40:01.205Z,1.60
2023-07-30T07:42:28.098Z,1.70
2023-07-30T07:44:54.914Z,1.65
2023-07-30T07:47:21.847Z,2.00
2023-07-30T07:49:49.502Z,1.52
2023-07-30T07:52:16.288Z,1.70
2023-07-30T07:54:43.290Z,1.40
2023-07-30T07:57:10.173Z,2.10
2023-07-30T07:59:37.303Z,1.83
2023-07-30T08:02:04.452Z,1.67
2023-07-30T08:04:31.353Z,1.85
2023-07-30T08:07:01.122Z,1.55
2023-07-30T08:09:28.025Z,1.65
2023-07-30T08:11:54.792Z,1.73
2023-07-30T08:14:22.578Z,1.80
2023-07-30T08:16:49.588Z,1.50
2023-07-30T08:19:16.425Z,1.65
2023-07-30T08:21:43.268Z,1.75
2023-07-30T08:24:10.076Z,2.33
2023-07-30T08:26:37.004Z,1.70
2023-07-30T08:29:04.390Z,2.17
2023-07-30T08:31:31.586Z,1.88
2023-07-30T08:33:58.406Z,2.13
2023-07-30T08:36:25.206Z,2.25
2023-07-30T08:38:52.134Z,1.88
2023-07-30T08:41:18.962Z,2.10
2023-07-30T08:43:49.860Z,1.92
2023-07-30T08:46:17.728Z,2.20
2023-07-30T08:48:46.426Z,2.00
2023-07-30T08:51:15.242Z,2.08
2023-07-30T08:53:43.233Z,2.67
2023-07-30T08:56:11.135Z,2.28
2023-07-30T08:58:38.494Z,2.13
2023-07-30T09:01:11.573Z,2.03
2023-07-30T09:03:41.916Z,2.08
2023-07-30T09:06:09.330Z,2.00
2023-07-30T09:08:36.388Z,2.28
2023-07-30T09:11:13.039Z,2.20
2023-07-30T09:13:41.311Z,2.53
2023-07-30T09:16:15.880Z,2.63
2023-07-30T09:18:45.629Z,2.20
2023-07-30T09:21:13.917Z,2.20
2023-07-30T09:23:46.042Z,2.30
2023-07-30T09:26:13.897Z,2.50
2023-07-30T09:28:43.661Z,2.22
2023-07-30T09:33:43.614Z,2.63
2023-07-30T09:36:10.808Z,2.50
2023-07-30T09:38:44.469Z,2.42
2023-07-30T09:41:13.424Z,2.92
2023-07-30T09:43:40.568Z,2.53
2023-07-30T09:46:08.472Z,2.40
2023-07-30T09:48:36.283Z,2.72
2023-07-30T09:51:04.834Z,2.50
2023-07-30T09:53:35.959Z,2.83
2023-07-30T09:56:09.694Z,2.85
2023-07-30T09:58:39.086Z,2.70
2023-07-30T10:01:07.226Z,2.00
2023-07-30T10:03:36.727Z,2.05
2023-07-30T10:06:04.801Z,2.08
2023-07-30T10:08:35.862Z,2.33
2023-07-30T10:11:06.161Z,2.08
2023-07-30T10:13:33.728Z,2.45
2023-07-30T10:16:00.619Z,2.30
2023-07-30T10:18:41.777Z,1.95
2023-07-30T10:21:10.610Z,2.08
2023-07-30T10:23:46.975Z,1.95
2023-07-30T10:26:13.812Z,2.08
2023-07-30T10:28:44.736Z,2.20
2023-07-30T10:31:14.534Z,2.55
2023-07-30T10:33:52.983Z,2.30
2023-07-30T10:36:31.533Z,1.80
2023-07-30T10:38:58.536Z,2.00
2023-07-30T10:41:25.398Z,4.70
2023-07-30T10:43:54.917Z,3.60
2023-07-30T10:46:21.703Z,2.40
2023-07-30T10:48:50.016Z,2.58
2023-07-30T10:51:19.064Z,2.10
2023-07-30T10:53:46.749Z,2.25
2023-07-30T10:56:14.831Z,2.15
2023-07-30T10:58:41.885Z,2.42
2023-07-30T11:01:09.714Z,2.17
2023-07-30T11:03:37.420Z,2.05
2023-07-30T11:06:04.658Z,2.30
2023-07-30T11:08:40.059Z,2.13
2023-07-30T11:11:08.501Z,2.22
2023-07-30T11:13:40.263Z,2.58
2023-07-30T11:16:08.411Z,2.65
2023-07-30T11:18:35.577Z,2.30
2023-07-30T11:21:17.288Z,2.13
2023-07-30T11:23:45.309Z,2.20
2023-07-30T11:26:19.854Z,2.17
2023-07-30T11:28:47.374Z,2.83
2023-07-30T11:31:18.411Z,9.43
2023-07-30T11:33:47.748Z,2.58
2023-07-30T11:36:23.511Z,2.42
2023-07-30T11:38:50.756Z,2.53
2023-07-30T11:41:18.425Z,2.58
2023-07-30T11:43:45.773Z,2.65
2023-07-30T11:46:14.297Z,2.95
2023-07-30T11:48:43.425Z,2.88
2023-07-30T11:51:25.591Z,2.35
2023-07-30T11:54:03.169Z,2.38
2023-07-30T11:56:31.570Z,2.15
2023-07-30T11:59:08.599Z,2.10
2023-07-30T12:01:37.909Z,2.20
2023-07-30T12:04:07.312Z,2.40
2023-07-30T12:06:48.607Z,2.05
2023-07-30T12:09:23.916Z,2.47
2023-07-30T12:11:59.505Z,2.80
2023-07-30T12:14:31.788Z,2.35
2023-07-30T12:16:59.572Z,2.10
2023-07-30T12:19:26.530Z,2.50
2023-07-30T12:21:53.415Z,2.53
2023-07-30T12:24:20.287Z,2.30
2023-07-30T12:26:47.162Z,4.75
2023-07-30T12:29:14.003Z,2.88
2023-07-30T12:31:41.005Z,3.20
2023-07-30T12:34:08.096Z,2.85
2023-07-30T12:36:34.966Z,3.25
2023-07-30T12:39:01.752Z,2.67
2023-07-30T12:41:28.844Z,2.60
2023-07-30T12:43:59.553Z,2.38
2023-07-30T12:46:30.917Z,2.42
2023-07-30T12:48:58.232Z,2.20
2023-07-30T12:51:25.034Z,2.90
2023-07-30T12:53:51.985Z,2.97
2023-07-30T12:56:18.837Z,3.05
2023-07-30T12:58:45.683Z,2.80
2023-07-30T13:01:13.538Z,2.53
2023-07-30T13:03:47.831Z,3.05
2023-07-30T13:06:14.786Z,2.33
2023-07-30T13:08:41.631Z,3.28
2023-07-30T13:11:08.887Z,2.92
2023-07-30T13:13:35.729Z,2.60
2023-07-30T13:16:02.897Z,2.85
2023-07-30T13:18:30.595Z,2.50
2023-07-30T13:20:57.445Z,2.92
2023-07-30T13:23:26.718Z,2.80
2023-07-30T13:25:53.598Z,2.85
2023-07-30T13:28:20.480Z,2.88
2023-07-30T13:30:47.405Z,3.30
2023-07-30T13:33:14.237Z,3.33
2023-07-30T13:35:41.053Z,3.08
2023-07-30T13:38:07.831Z,3.40
2023-07-30T13:40:34.671Z,3.58
2023-07-30T13:43:01.509Z,3.53
2023-07-30T13:45:29.238Z,3.42
2023-07-30T13:47:56.206Z,3.80
2023-07-30T13:50:23.154Z,3.55
2023-07-30T13:52:50.088Z,3.88
2023-07-30T13:55:17.843Z,4.10
2023-07-30T13:57:44.949Z,3.72
2023-07-30T14:00:12.584Z,3.25
2023-07-30T14:02:39.545Z,3.53
2023-07-30T14:05:07.066Z,3.53
2023-07-30T14:07:33.961Z,3.35
2023-07-30T14:10:00.820Z,2.63
2023-07-30T14:12:27.736Z,2.97
2023-07-30T14:14:54.645Z,3.08
2023-07-30T14:17:21.493Z,2.80
2023-07-30T14:19:48.460Z,2.90
2023-07-30T14:22:15.331Z,3.17
2023-07-30T14:24:44.310Z,3.30
2023-07-30T14:27:11.480Z,3.22
2023-07-30T14:29:38.280Z,3.42
2023-07-30T14:32:05.517Z,3.33
2023-07-30T14:34:32.558Z,3.38
2023-07-30T14:36:59.344Z,3.90
2023-07-30T14:39:26.170Z,3.55
2023-07-30T14:41:52.987Z,4.03
2023-07-30T14:44:19.892Z,3.60
2023-07-30T14:46:46.705Z,3.58
2023-07-30T14:49:13.598Z,3.40
2023-07-30T14:51:40.613Z,3.30
2023-07-30T14:54:08.072Z,4.35
2023-07-30T14:56:34.976Z,3.63
2023-07-30T14:59:01.782Z,3.75
2023-07-30T15:01:31.868Z,3.88
2023-07-30T15:03:58.782Z,3.47
2023-07-30T15:06:30.072Z,3.58
2023-07-30T15:08:59.643Z,3.38
2023-07-30T15:11:26.431Z,3.05
2023-07-30T15:13:53.225Z,3.20
2023-07-30T15:16:20.801Z,3.45
2023-07-30T15:18:47.635Z,3.10
2023-07-30T15:21:14.614Z,3.15
2023-07-30T15:23:44.043Z,3.22
2023-07-30T15:26:10.924Z,3.20
2023-07-30T15:28:37.824Z,3.35
2023-07-30T15:31:05.192Z,2.92
2023-07-30T15:33:34.425Z,3.25
2023-07-30T15:36:02.942Z,2.97
2023-07-30T15:38:29.883Z,3.10
2023-07-30T15:40:56.798Z,2.78
2023-07-30T15:43:23.863Z,3.30
2023-07-30T15:45:50.759Z,3.42
2023-07-30T15:48:17.644Z,3.25
2023-07-30T15:50:44.448Z,4.05
2023-07-30T15:53:11.394Z,4.30
2023-07-30T15:55:38.322Z,3.13
2023-07-30T15:58:05.510Z,6.57
2023-07-30T16:00:32.338Z,7.85
2023-07-30T16:02:59.321Z,3.72
2023-07-30T16:05:26.382Z,3.42
2023-07-30T16:07:53.306Z,3.45
2023-07-30T16:10:20.222Z,3.75
2023-07-30T16:12:47.065Z,4.15
2023-07-30T16:15:14.058Z,4.55
2023-07-30T16:17:41.018Z,4.03
2023-07-30T16:20:08.318Z,4.40
2023-07-30T16:22:35.220Z,4.45
2023-07-30T16:25:02.023Z,3.70
2023-07-30T16:27:28.874Z,3.80
2023-07-30T16:29:55.677Z,4.70
2023-07-30T16:32:23.539Z,3.70
2023-07-30T16:34:50.436Z,3.72
2023-07-30T16:37:19.961Z,3.85
2023-07-30T16:39:48.301Z,4.45
2023-07-30T16:42:15.229Z,4.10
2023-07-30T16:44:42.494Z,3.88
2023-07-30T16:47:09.358Z,14.98
2023-07-30T16:49:36.190Z,9.30
2023-07-30T16:52:03.039Z,4.80
2023-07-30T16:54:29.916Z,4.57
2023-07-30T16:56:56.729Z,3.75
2023-07-30T16:59:23.614Z,3.85
2023-07-30T17:01:50.425Z,4.25
2023-07-30T17:04:17.309Z,3.88
2023-07-30T17:06:44.287Z,3.80
2023-07-30T17:09:11.137Z,2.70
2023-07-30T17:11:38.540Z,2.70
2023-07-30T17:14:05.463Z,2.65
2023-07-30T17:16:32.320Z,2.83
2023-07-30T17:18:59.165Z,3.35
2023-07-30T17:21:27.077Z,3.30
2023-07-30T17:23:53.993Z,3.38
2023-07-30T17:26:20.811Z,2.92
2023-07-30T17:28:47.682Z,3.17
2023-07-30T17:31:14.673Z,2.97
2023-07-30T17:33:41.628Z,3.00
2023-07-30T17:36:09.740Z,2.47
2023-07-30T17:38:36.689Z,2.25
2023-07-30T17:41:03.548Z,2.47
2023-07-30T17:43:30.633Z,2.95
2023-07-30T17:45:57.579Z,2.65
2023-07-30T17:48:24.492Z,2.90
2023-07-30T17:50:51.569Z,2.15
2023-07-30T17:53:18.370Z,2.70
2023-07-30T17:55:45.238Z,2.20
2023-07-30T17:58:12.533Z,2.20
2023-07-30T18:00:44.318Z,1.90
2023-07-30T18:03:12.936Z,2.45
2023-07-30T18:05:47.549Z,2.60
2023-07-30T18:08:15.729Z,2.97
2023-07-30T18:10:42.633Z,2.78
2023-07-30T18:13:09.563Z,3.17
2023-07-30T18:15:36.487Z,3.28
2023-07-30T18:18:05.156Z,3.28
2023-07-30T18:20:35.214Z,3.03
2023-07-30T18:23:03.157Z,2.95
2023-07-30T18:25:31.620Z,3.00
2023-07-30T18:27:59.193Z,2.90
2023-07-30T18:30:26.190Z,2.88
2023-07-30T18:32:53.063Z,2.90
2023-07-30T18:35:20.115Z,2.75
2023-07-30T18:37:47.031Z,2.80
2023-07-30T18:40:14.061Z,3.20
2023-07-30T18:42:40.946Z,2.67
2023-07-30T18:45:08.409Z,3.05
2023-07-30T18:47:35.369Z,3.20
2023-07-30T18:50:02.321Z,3.08
2023-07-30T18:52:31.241Z,2.65
2023-07-30T18:54:58.203Z,2.92
2023-07-30T18:57:25.195Z,2.90
2023-07-30T18:59:52.106Z,3.08
2023-07-30T19:02:19.135Z,3.15
2023-07-30T19:04:46.045Z,3.08
2023-07-30T19:07:14.429Z,3.47
2023-07-30T19:09:41.358Z,2.88
2023-07-30T19:12:08.692Z,2.38
2023-07-30T19:14:36.015Z,2.70
2023-07-30T19:17:03.001Z,3.10
2023-07-30T19:19:29.862Z,2.80
2023-07-30T19:21:56.701Z,2.95
2023-07-30T19:24:23.595Z,2.78
2023-07-30T19:26:51.412Z,2.90
2023-07-30T19:29:18.287Z,3.40
2023-07-30T19:31:45.101Z,3.20
2023-07-30T19:34:13.471Z,3.40
2023-07-30T19:36:41.283Z,3.15
2023-07-30T19:39:08.624Z,2.90
2023-07-30T19:41:36.253Z,3.85
2023-07-30T19:44:03.323Z,2.85
2023-07-30T19:46:31.068Z,2.80
2023-07-30T19:48:58.611Z,2.83
2023-07-30T19:51:26.102Z,2.80
2023-07-30T19:53:52.948Z,2.65
2023-07-30T19:56:19.906Z,2.60
2023-07-30T19:58:46.772Z,2.70
2023-07-30T20:01:13.704Z,2.47
2023-07-30T20:03:40.596Z,2.53
2023-07-30T20:06:10.503Z,2.85
2023-07-30T20:08:39.416Z,2.35
2023-07-30T20:11:07.524Z,2.53
2023-07-30T20:13:34.720Z,2.58
2023-07-30T20:16:01.789Z,2.65
2023-07-30T20:18:31.327Z,2.95
2023-07-30T20:20:58.244Z,2.78
2023-07-30T20:23:26.078Z,2.88
2023-07-30T20:25:53.043Z,2.75
2023-07-30T20:28:22.038Z,4.95
2023-07-30T20:30:49.661Z,3.00
2023-07-30T20:33:16.559Z,3.42
2023-07-30T20:35:43.361Z,2.53
2023-07-30T20:38:10.703Z,2.72
2023-07-30T20:40:37.603Z,2.80
2023-07-30T20:43:04.571Z,3.78
2023-07-30T20:45:31.653Z,2.75
2023-07-30T20:47:58.667Z,2.80
2023-07-30T20:50:25.616Z,2.50
2023-07-30T20:52:52.416Z,3.08
2023-07-30T20:55:19.990Z,2.80
2023-07-30T20:57:47.035Z,2.33
2023-07-30T21:00:14.855Z,2.50
2023-07-30T21:02:41.890Z,2.45
2023-07-30T21:05:09.547Z,2.75
2023-07-30T21:07:36.925Z,2.80
2023-07-30T21:10:04.484Z,2.40
2023-07-30T21:12:32.653Z,2.30
2023-07-30T21:15:02.547Z,2.97
2023-07-30T21:17:31.368Z,2.95
2023-07-30T21:19:58.304Z,2.97
2023-07-30T21:22:25.117Z,2.90
2023-07-30T21:24:52.174Z,2.72
2023-07-30T21:27:19.400Z,3.00
2023-07-30T21:29:46.912Z,3.20
2023-07-30T21:32:14.169Z,3.45
2023-07-30T21:34:42.786Z,3.30
2023-07-30T21:37:10.603Z,3.80
2023-07-30T21:39:37.624Z,3.42
2023-07-30T21:42:04.894Z,3.15
2023-07-30T21:44:32.787Z,3.33
2023-07-30T21:46:59.839Z,3.03
2023-07-30T21:49:26.707Z,3.47
2023-07-30T21:51:56.783Z,3.60
2023-07-30T21:54:24.024Z,3.60
2023-07-30T21:56:50.846Z,3.65
2023-07-30T21:59:17.718Z,3.53
2023-07-30T22:01:44.687Z,3.53
2023-07-30T22:04:11.507Z,3.42
2023-07-30T22:06:38.712Z,3.45
2023-07-30T22:09:05.881Z,3.60
2023-07-30T22:11:32.716Z,3.83
2023-07-30T22:13:59.579Z,3.15
2023-07-30T22:16:26.477Z,3.22
2023-07-30T22:18:53.308Z,3.40
2023-07-30T22:21:20.153Z,3.72
2023-07-30T22:23:47.009Z,3.60
2023-07-30T22:26:14.254Z,3.25
2023-07-30T22:28:41.067Z,3.55
2023-07-30T22:31:08.010Z,3.42
2023-07-30T22:33:34.928Z,3.25
2023-07-30T22:36:01.716Z,3.33
2023-07-30T22:38:28.594Z,3.15
2023-07-30T22:40:55.545Z,3.17
2023-07-30T22:43:23.107Z,2.85
2023-07-30T22:45:50.069Z,3.10
2023-07-30T22:48:16.890Z,3.15
2023-07-30T22:50:46.568Z,2.70
2023-07-30T22:53:13.687Z,2.97
2023-07-30T22:55:40.633Z,3.30
2023-07-30T22:58:07.465Z,3.15
2023-07-30T23:00:34.343Z,2.88
2023-07-30T23:03:01.236Z,3.15
2023-07-30T23:05:28.560Z,3.40
2023-07-30T23:07:55.398Z,3.20
2023-07-30T23:10:22.229Z,3.53
2023-07-30T23:12:49.033Z,3.42
2023-07-30T23:15:16.167Z,3.17
2023-07-30T23:17:43.157Z,3.10
2023-07-30T23:20:10.647Z,3.00
2023-07-30T23:22:37.549Z,3.45
2023-07-30T23:25:04.655Z,3.33
2023-07-30T23:27:32.297Z,3.28
2023-07-30T23:29:59.144Z,2.90
2023-07-30T23:32:25.985Z,3.03
2023-07-30T23:34:52.787Z,3.10
2023-07-30T23:37:19.622Z,3.47
2023-07-30T23:39:46.515Z,2.97
2023-07-30T23:42:13.312Z,2.95
2023-07-30T23:44:40.174Z,3.53
2023-07-30T23:47:07.028Z,2.75
2023-07-30T23:49:33.840Z,3.10
2023-07-30T23:52:00.723Z,3.20
2023-07-30T23:54:27.510Z,2.72
2023-07-30T23:56:54.379Z,3.00
2023-07-30T23:59:21.221Z,3.00
